sensor_id;sensor_type;location;lat;lon;timestamp;temperature;humidity
53653;DHT22;39553;52.954;5.932;2023-02-26T00:02:19;1.30;99.90
53653;DHT22;39553;52.954;5.932;2023-02-26T00:04:44;1.60;99.90
53653;DHT22;39553;52.954;5.932;2023-02-26T00:07:10;1.20;99.90
53653;DHT22;39553;52.954;5.932;2023-02-26T00:09:36;1.20;99.90
53653;DHT22;39553;52.954;5.932;2023-02-26T00:12:02;2.50;99.90
53653;DHT22;39553;52.954;5.932;2023-02-26T00:14:28;1.10;99.90
53653;DHT22;39553;52.954;5.932;2023-02-26T00:17:12;1.10;99.90
53653;DHT22;39553;52.954;5.932;2023-02-26T00:19:42;1.10;99.90
53653;DHT22;39553;52.954;5.932;2023-02-26T00:22:09;1.10;99.90
53653;DHT22;39553;52.954;5.932;2023-02-26T00:24:35;1.00;99.90
53653;DHT22;39553;52.954;5.932;2023-02-26T00:27:00;1.70;99.90
53653;DHT22;39553;52.954;5.932;2023-02-26T00:29:26;0.90;99.90
53653;DHT22;39553;52.954;5.932;2023-02-26T00:31:52;0.90;99.90
53653;DHT22;39553;52.954;5.932;2023-02-26T00:34:19;0.80;99.90
53653;DHT22;39553;52.954;5.932;2023-02-26T00:36:58;0.70;99.90
53653;DHT22;39553;52.954;5.932;2023-02-26T00:42:05;0.70;99.90
53653;DHT22;39553;52.954;5.932;2023-02-26T00:44:31;0.70;99.90
53653;DHT22;39553;52.954;5.932;2023-02-26T00:47:39;0.60;99.90
53653;DHT22;39553;52.954;5.932;2023-02-26T00:50:21;0.70;99.90
53653;DHT22;39553;52.954;5.932;2023-02-26T00:55:22;0.50;99.90
53653;DHT22;39553;52.954;5.932;2023-02-26T00:57:48;0.80;99.90
53653;DHT22;39553;52.954;5.932;2023-02-26T01:00:14;0.70;99.90
53653;DHT22;39553;52.954;5.932;2023-02-26T01:02:40;0.70;99.90
53653;DHT22;39553;52.954;5.932;2023-02-26T01:05:07;0.80;99.90
53653;DHT22;39553;52.954;5.932;2023-02-26T01:10:39;0.70;99.90
53653;DHT22;39553;52.954;5.932;2023-02-26T01:13:05;0.60;99.90
53653;DHT22;39553;52.954;5.932;2023-02-26T01:15:31;0.60;99.90
53653;DHT22;39553;52.954;5.932;2023-02-26T01:18:22;0.60;99.90
53653;DHT22;39553;52.954;5.932;2023-02-26T01:20:57;0.50;99.90
53653;DHT22;39553;52.954;5.932;2023-02-26T01:23:34;0.80;99.90
53653;DHT22;39553;52.954;5.932;2023-02-26T01:26:07;0.40;99.90
53653;DHT22;39553;52.954;5.932;2023-02-26T01:28:35;0.40;99.90
53653;DHT22;39553;52.954;5.932;2023-02-26T01:31:02;0.40;99.90
53653;DHT22;39553;52.954;5.932;2023-02-26T01:33:54;0.40;99.90
53653;DHT22;39553;52.954;5.932;2023-02-26T01:36:23;0.40;99.90
53653;DHT22;39553;52.954;5.932;2023-02-26T01:38:59;0.40;99.90
53653;DHT22;39553;52.954;5.932;2023-02-26T01:41:32;0.40;99.90
53653;DHT22;39553;52.954;5.932;2023-02-26T01:46:38;0.50;99.90
53653;DHT22;39553;52.954;5.932;2023-02-26T01:49:15;0.60;99.90
53653;DHT22;39553;52.954;5.932;2023-02-26T01:51:51;0.20;99.90
53653;DHT22;39553;52.954;5.932;2023-02-26T01:54:22;0.20;99.90
53653;DHT22;39553;52.954;5.932;2023-02-26T01:57:13;0.20;99.90
53653;DHT22;39553;52.954;5.932;2023-02-26T01:59:40;0.10;99.90
53653;DHT22;39553;52.954;5.932;2023-02-26T02:02:09;0.20;99.90
53653;DHT22;39553;52.954;5.932;2023-02-26T02:04:35;0.10;99.90
53653;DHT22;39553;52.954;5.932;2023-02-26T02:07:05;0.10;99.90
53653;DHT22;39553;52.954;5.932;2023-02-26T02:09:32;0.10;99.90
53653;DHT22;39553;52.954;5.932;2023-02-26T02:18:03;0.10;99.90
53653;DHT22;39553;52.954;5.932;2023-02-26T02:31:20;-0.20;99.90
53653;DHT22;39553;52.954;5.932;2023-02-26T02:36:50;-0.10;99.90
53653;DHT22;39553;52.954;5.932;2023-02-26T02:41:56;0.00;99.90
53653;DHT22;39553;52.954;5.932;2023-02-26T02:44:25;-0.10;99.90
53653;DHT22;39553;52.954;5.932;2023-02-26T02:46:54;0.70;99.90
53653;DHT22;39553;52.954;5.932;2023-02-26T02:49:26;0.00;99.90
53653;DHT22;39553;52.954;5.932;2023-02-26T02:52:09;0.00;99.90
53653;DHT22;39553;52.954;5.932;2023-02-26T02:54:59;0.00;99.90
53653;DHT22;39553;52.954;5.932;2023-02-26T02:57:39;-0.10;99.90
53653;DHT22;39553;52.954;5.932;2023-02-26T03:00:10;0.20;99.90
53653;DHT22;39553;52.954;5.932;2023-02-26T03:02:59;-0.20;99.90
53653;DHT22;39553;52.954;5.932;2023-02-26T03:05:28;-0.20;99.90
53653;DHT22;39553;52.954;5.932;2023-02-26T03:07:59;-0.20;99.90
53653;DHT22;39553;52.954;5.932;2023-02-26T03:10:26;-0.40;99.90
53653;DHT22;39553;52.954;5.932;2023-02-26T03:12:52;-0.20;99.90
53653;DHT22;39553;52.954;5.932;2023-02-26T03:15:33;-0.30;99.90
53653;DHT22;39553;52.954;5.932;2023-02-26T03:18:18;-0.30;99.90
53653;DHT22;39553;52.954;5.932;2023-02-26T03:20:58;-0.20;99.90
53653;DHT22;39553;52.954;5.932;2023-02-26T03:23:39;-0.30;99.90
53653;DHT22;39553;52.954;5.932;2023-02-26T03:26:13;-0.30;99.90
53653;DHT22;39553;52.954;5.932;2023-02-26T03:29:04;-0.20;99.90
53653;DHT22;39553;52.954;5.932;2023-02-26T03:31:55;-0.40;99.90
53653;DHT22;39553;52.954;5.932;2023-02-26T03:34:26;-0.60;99.90
53653;DHT22;39553;52.954;5.932;2023-02-26T03:37:00;-0.60;99.90
53653;DHT22;39553;52.954;5.932;2023-02-26T03:39:32;-0.50;99.90
53653;DHT22;39553;52.954;5.932;2023-02-26T03:42:08;-0.60;99.90
53653;DHT22;39553;52.954;5.932;2023-02-26T03:44:48;-0.60;99.90
53653;DHT22;39553;52.954;5.932;2023-02-26T03:47:17;-0.70;99.90
53653;DHT22;39553;52.954;5.932;2023-02-26T03:52:14;-0.60;99.90
53653;DHT22;39553;52.954;5.932;2023-02-26T03:54:48;-0.60;99.90
53653;DHT22;39553;52.954;5.932;2023-02-26T03:57:15;-0.60;99.90
53653;DHT22;39553;52.954;5.932;2023-02-26T03:59:41;-0.60;99.90
53653;DHT22;39553;52.954;5.932;2023-02-26T04:02:16;-0.50;99.90
53653;DHT22;39553;52.954;5.932;2023-02-26T04:04:52;-0.50;99.90
53653;DHT22;39553;52.954;5.932;2023-02-26T04:07:20;-0.30;99.90
53653;DHT22;39553;52.954;5.932;2023-02-26T04:09:48;-0.50;99.90
53653;DHT22;39553;52.954;5.932;2023-02-26T04:12:14;-0.60;99.90
53653;DHT22;39553;52.954;5.932;2023-02-26T04:14:44;-0.50;99.90
53653;DHT22;39553;52.954;5.932;2023-02-26T04:17:10;0.80;99.90
53653;DHT22;39553;52.954;5.932;2023-02-26T04:19:36;0.10;99.90
53653;DHT22;39553;52.954;5.932;2023-02-26T04:22:01;-0.40;99.90
53653;DHT22;39553;52.954;5.932;2023-02-26T04:24:27;-0.30;99.90
53653;DHT22;39553;52.954;5.932;2023-02-26T04:26:53;-0.80;99.90
53653;DHT22;39553;52.954;5.932;2023-02-26T04:29:19;0.20;99.90
53653;DHT22;39553;52.954;5.932;2023-02-26T04:31:44;-0.30;99.90
53653;DHT22;39553;52.954;5.932;2023-02-26T04:34:10;0.60;99.90
53653;DHT22;39553;52.954;5.932;2023-02-26T04:36:36;-0.30;99.90
53653;DHT22;39553;52.954;5.932;2023-02-26T04:39:02;-0.40;99.90
53653;DHT22;39553;52.954;5.932;2023-02-26T04:41:27;-0.40;99.90
53653;DHT22;39553;52.954;5.932;2023-02-26T04:43:53;-0.30;99.90
53653;DHT22;39553;52.954;5.932;2023-02-26T04:46:19;-0.20;99.90
53653;DHT22;39553;52.954;5.932;2023-02-26T04:48:45;-0.30;99.90
53653;DHT22;39553;52.954;5.932;2023-02-26T04:51:10;-0.30;99.90
53653;DHT22;39553;52.954;5.932;2023-02-26T04:53:36;-0.30;99.90
53653;DHT22;39553;52.954;5.932;2023-02-26T04:56:02;-0.40;99.90
53653;DHT22;39553;52.954;5.932;2023-02-26T04:58:28;-0.40;99.90
53653;DHT22;39553;52.954;5.932;2023-02-26T05:00:54;-0.40;99.90
53653;DHT22;39553;52.954;5.932;2023-02-26T05:03:20;-0.20;99.90
53653;DHT22;39553;52.954;5.932;2023-02-26T05:05:46;-0.40;99.90
53653;DHT22;39553;52.954;5.932;2023-02-26T05:08:12;-0.20;99.90
53653;DHT22;39553;52.954;5.932;2023-02-26T05:10:38;-0.70;99.90
53653;DHT22;39553;52.954;5.932;2023-02-26T05:13:04;-0.70;99.90
53653;DHT22;39553;52.954;5.932;2023-02-26T05:15:30;-0.70;99.90
53653;DHT22;39553;52.954;5.932;2023-02-26T05:17:55;-0.70;99.90
53653;DHT22;39553;52.954;5.932;2023-02-26T05:20:21;1.10;99.90
53653;DHT22;39553;52.954;5.932;2023-02-26T05:22:47;-0.40;99.90
53653;DHT22;39553;52.954;5.932;2023-02-26T05:25:13;-0.60;99.90
53653;DHT22;39553;52.954;5.932;2023-02-26T05:27:40;-0.20;99.90
53653;DHT22;39553;52.954;5.932;2023-02-26T05:30:08;-0.20;99.90
53653;DHT22;39553;52.954;5.932;2023-02-26T05:32:34;-0.10;99.90
53653;DHT22;39553;52.954;5.932;2023-02-26T05:35:00;-0.10;99.90
53653;DHT22;39553;52.954;5.932;2023-02-26T05:37:26;0.00;99.90
53653;DHT22;39553;52.954;5.932;2023-02-26T05:39:52;0.00;99.90
53653;DHT22;39553;52.954;5.932;2023-02-26T05:42:18;-0.20;99.90
53653;DHT22;39553;52.954;5.932;2023-02-26T05:44:43;0.10;99.90
53653;DHT22;39553;52.954;5.932;2023-02-26T05:47:09;0.00;99.90
53653;DHT22;39553;52.954;5.932;2023-02-26T05:49:35;0.00;99.90
53653;DHT22;39553;52.954;5.932;2023-02-26T05:52:02;0.00;99.90
53653;DHT22;39553;52.954;5.932;2023-02-26T05:54:27;0.00;99.90
53653;DHT22;39553;52.954;5.932;2023-02-26T05:56:53;-0.10;99.90
53653;DHT22;39553;52.954;5.932;2023-02-26T05:59:20;-0.20;99.90
53653;DHT22;39553;52.954;5.932;2023-02-26T06:01:46;-0.10;99.90
53653;DHT22;39553;52.954;5.932;2023-02-26T06:04:11;-0.10;99.90
53653;DHT22;39553;52.954;5.932;2023-02-26T06:06:37;0.60;99.90
53653;DHT22;39553;52.954;5.932;2023-02-26T06:09:03;-0.20;99.90
53653;DHT22;39553;52.954;5.932;2023-02-26T06:11:29;-0.20;99.90
53653;DHT22;39553;52.954;5.932;2023-02-26T06:13:55;-0.30;99.90
53653;DHT22;39553;52.954;5.932;2023-02-26T06:16:22;-0.30;99.90
53653;DHT22;39553;52.954;5.932;2023-02-26T06:18:48;-0.30;99.90
53653;DHT22;39553;52.954;5.932;2023-02-26T06:21:14;-0.40;99.90
53653;DHT22;39553;52.954;5.932;2023-02-26T06:23:40;0.40;99.90
53653;DHT22;39553;52.954;5.932;2023-02-26T06:26:06;-0.40;99.90
53653;DHT22;39553;52.954;5.932;2023-02-26T06:28:32;-0.40;99.90
53653;DHT22;39553;52.954;5.932;2023-02-26T06:30:57;-0.40;99.90
53653;DHT22;39553;52.954;5.932;2023-02-26T06:33:24;1.00;99.90
53653;DHT22;39553;52.954;5.932;2023-02-26T06:35:50;-0.60;99.90
53653;DHT22;39553;52.954;5.932;2023-02-26T06:38:16;-0.60;99.90
53653;DHT22;39553;52.954;5.932;2023-02-26T06:40:43;-0.90;99.90
53653;DHT22;39553;52.954;5.932;2023-02-26T06:43:09;-0.80;99.90
53653;DHT22;39553;52.954;5.932;2023-02-26T06:45:35;-0.80;99.90
53653;DHT22;39553;52.954;5.932;2023-02-26T06:48:01;-0.80;99.90
53653;DHT22;39553;52.954;5.932;2023-02-26T06:50:27;-0.80;99.90
53653;DHT22;39553;52.954;5.932;2023-02-26T06:52:53;-0.80;99.90
53653;DHT22;39553;52.954;5.932;2023-02-26T06:55:18;-0.80;99.90
53653;DHT22;39553;52.954;5.932;2023-02-26T06:57:46;-0.10;99.90
53653;DHT22;39553;52.954;5.932;2023-02-26T07:00:13;-0.80;99.90
53653;DHT22;39553;52.954;5.932;2023-02-26T07:02:39;-0.80;99.90
53653;DHT22;39553;52.954;5.932;2023-02-26T07:05:05;-0.30;99.90
53653;DHT22;39553;52.954;5.932;2023-02-26T07:07:31;-0.80;99.90
53653;DHT22;39553;52.954;5.932;2023-02-26T07:09:57;0.30;99.90
53653;DHT22;39553;52.954;5.932;2023-02-26T07:12:22;-0.70;99.90
53653;DHT22;39553;52.954;5.932;2023-02-26T07:14:48;-0.70;99.90
53653;DHT22;39553;52.954;5.932;2023-02-26T07:17:14;-0.60;99.90
53653;DHT22;39553;52.954;5.932;2023-02-26T07:19:51;-0.70;99.90
53653;DHT22;39553;52.954;5.932;2023-02-26T07:22:18;-0.60;99.90
53653;DHT22;39553;52.954;5.932;2023-02-26T07:24:45;-0.50;99.90
53653;DHT22;39553;52.954;5.932;2023-02-26T07:27:11;-0.50;99.90
53653;DHT22;39553;52.954;5.932;2023-02-26T07:29:37;-0.20;99.90
53653;DHT22;39553;52.954;5.932;2023-02-26T07:32:04;-0.40;99.90
53653;DHT22;39553;52.954;5.932;2023-02-26T07:34:30;-0.40;99.90
53653;DHT22;39553;52.954;5.932;2023-02-26T07:36:56;0.70;99.90
53653;DHT22;39553;52.954;5.932;2023-02-26T07:39:24;-0.30;99.90
53653;DHT22;39553;52.954;5.932;2023-02-26T07:41:49;0.00;99.90
53653;DHT22;39553;52.954;5.932;2023-02-26T07:44:15;-0.20;99.90
53653;DHT22;39553;52.954;5.932;2023-02-26T07:46:41;-0.20;99.90
53653;DHT22;39553;52.954;5.932;2023-02-26T07:49:07;0.70;99.90
53653;DHT22;39553;52.954;5.932;2023-02-26T07:51:32;-0.10;99.90
53653;DHT22;39553;52.954;5.932;2023-02-26T07:54:01;0.00;99.90
53653;DHT22;39553;52.954;5.932;2023-02-26T07:56:27;0.20;99.90
53653;DHT22;39553;52.954;5.932;2023-02-26T07:58:53;0.10;99.90
53653;DHT22;39553;52.954;5.932;2023-02-26T08:01:19;1.50;99.90
53653;DHT22;39553;52.954;5.932;2023-02-26T08:03:44;0.30;99.90
53653;DHT22;39553;52.954;5.932;2023-02-26T08:06:11;-0.10;99.90
53653;DHT22;39553;52.954;5.932;2023-02-26T08:08:36;0.30;99.90
53653;DHT22;39553;52.954;5.932;2023-02-26T08:11:02;1.50;99.90
53653;DHT22;39553;52.954;5.932;2023-02-26T08:13:28;0.60;99.90
53653;DHT22;39553;52.954;5.932;2023-02-26T08:15:54;0.70;99.90
53653;DHT22;39553;52.954;5.932;2023-02-26T08:18:20;0.50;99.90
53653;DHT22;39553;52.954;5.932;2023-02-26T08:20:50;0.80;99.90
53653;DHT22;39553;52.954;5.932;2023-02-26T08:23:16;0.80;99.90
53653;DHT22;39553;52.954;5.932;2023-02-26T08:25:42;0.90;99.90
53653;DHT22;39553;52.954;5.932;2023-02-26T08:28:08;1.00;99.90
53653;DHT22;39553;52.954;5.932;2023-02-26T08:30:33;1.10;99.90
53653;DHT22;39553;52.954;5.932;2023-02-26T08:32:59;1.00;99.90
53653;DHT22;39553;52.954;5.932;2023-02-26T08:35:25;1.30;99.90
53653;DHT22;39553;52.954;5.932;2023-02-26T08:37:51;1.30;99.90
53653;DHT22;39553;52.954;5.932;2023-02-26T08:40:17;1.40;99.90
53653;DHT22;39553;52.954;5.932;2023-02-26T08:42:43;1.50;99.90
53653;DHT22;39553;52.954;5.932;2023-02-26T08:45:09;1.60;99.90
53653;DHT22;39553;52.954;5.932;2023-02-26T08:47:34;1.70;99.90
53653;DHT22;39553;52.954;5.932;2023-02-26T08:50:00;2.30;99.90
53653;DHT22;39553;52.954;5.932;2023-02-26T08:52:27;1.90;99.90
53653;DHT22;39553;52.954;5.932;2023-02-26T08:54:53;3.20;99.90
53653;DHT22;39553;52.954;5.932;2023-02-26T08:57:19;2.10;99.90
53653;DHT22;39553;52.954;5.932;2023-02-26T08:59:44;2.20;99.90
53653;DHT22;39553;52.954;5.932;2023-02-26T09:02:11;2.30;99.90
53653;DHT22;39553;52.954;5.932;2023-02-26T09:04:37;2.40;99.90
53653;DHT22;39553;52.954;5.932;2023-02-26T09:07:03;2.50;99.90
53653;DHT22;39553;52.954;5.932;2023-02-26T09:09:29;2.60;99.90
53653;DHT22;39553;52.954;5.932;2023-02-26T09:11:54;3.10;99.90
53653;DHT22;39553;52.954;5.932;2023-02-26T09:14:20;4.10;99.90
53653;DHT22;39553;52.954;5.932;2023-02-26T09:16:46;5.30;99.90
53653;DHT22;39553;52.954;5.932;2023-02-26T09:19:12;6.60;99.90
53653;DHT22;39553;52.954;5.932;2023-02-26T09:21:38;7.10;99.90
53653;DHT22;39553;52.954;5.932;2023-02-26T09:24:03;7.60;99.90
53653;DHT22;39553;52.954;5.932;2023-02-26T09:26:29;8.00;99.90
53653;DHT22;39553;52.954;5.932;2023-02-26T09:28:55;8.40;99.90
53653;DHT22;39553;52.954;5.932;2023-02-26T09:31:21;8.90;99.90
53653;DHT22;39553;52.954;5.932;2023-02-26T09:33:46;9.20;99.90
53653;DHT22;39553;52.954;5.932;2023-02-26T09:36:12;9.20;99.90
53653;DHT22;39553;52.954;5.932;2023-02-26T09:38:38;9.40;99.90
53653;DHT22;39553;52.954;5.932;2023-02-26T09:41:08;9.40;99.20
53653;DHT22;39553;52.954;5.932;2023-02-26T09:43:58;9.60;96.00
53653;DHT22;39553;52.954;5.932;2023-02-26T09:51:53;10.30;97.30
53653;DHT22;39553;52.954;5.932;2023-02-26T09:54:29;10.50;97.70
53653;DHT22;39553;52.954;5.932;2023-02-26T09:56:58;10.70;93.90
53653;DHT22;39553;52.954;5.932;2023-02-26T09:59:28;10.80;96.40
53653;DHT22;39553;52.954;5.932;2023-02-26T10:02:03;10.90;95.90
53653;DHT22;39553;52.954;5.932;2023-02-26T10:07:20;11.00;93.70
53653;DHT22;39553;52.954;5.932;2023-02-26T10:12:30;11.30;92.00
53653;DHT22;39553;52.954;5.932;2023-02-26T10:15:14;11.50;93.90
53653;DHT22;39553;52.954;5.932;2023-02-26T10:20:12;11.40;92.20
53653;DHT22;39553;52.954;5.932;2023-02-26T10:22:57;11.20;92.20
53653;DHT22;39553;52.954;5.932;2023-02-26T10:26:11;11.20;90.30
53653;DHT22;39553;52.954;5.932;2023-02-26T10:31:08;10.50;90.40
53653;DHT22;39553;52.954;5.932;2023-02-26T10:33:50;10.50;89.20
53653;DHT22;39553;52.954;5.932;2023-02-26T10:38:49;10.90;89.60
53653;DHT22;39553;52.954;5.932;2023-02-26T10:41:20;11.00;89.80
53653;DHT22;39553;52.954;5.932;2023-02-26T10:51:43;9.30;89.90
53653;DHT22;39553;52.954;5.932;2023-02-26T10:54:32;9.10;90.90
53653;DHT22;39553;52.954;5.932;2023-02-26T10:56:59;9.20;90.50
53653;DHT22;39553;52.954;5.932;2023-02-26T10:59:26;9.40;91.60
53653;DHT22;39553;52.954;5.932;2023-02-26T11:01:52;9.50;91.40
53653;DHT22;39553;52.954;5.932;2023-02-26T11:04:22;9.40;90.70
53653;DHT22;39553;52.954;5.932;2023-02-26T11:06:56;9.50;90.70
53653;DHT22;39553;52.954;5.932;2023-02-26T11:09:26;9.60;91.20
53653;DHT22;39553;52.954;5.932;2023-02-26T11:12:04;9.70;91.30
53653;DHT22;39553;52.954;5.932;2023-02-26T11:14:32;10.00;90.60
53653;DHT22;39553;52.954;5.932;2023-02-26T11:17:01;10.00;90.60
53653;DHT22;39553;52.954;5.932;2023-02-26T11:19:37;9.60;90.10
53653;DHT22;39553;52.954;5.932;2023-02-26T11:22:04;8.90;89.50
53653;DHT22;39553;52.954;5.932;2023-02-26T11:24:41;8.60;91.00
53653;DHT22;39553;52.954;5.932;2023-02-26T11:27:35;8.90;90.90
53653;DHT22;39553;52.954;5.932;2023-02-26T11:30:19;9.00;89.00
53653;DHT22;39553;52.954;5.932;2023-02-26T11:32:49;8.80;88.80
53653;DHT22;39553;52.954;5.932;2023-02-26T11:35:17;8.70;90.30
53653;DHT22;39553;52.954;5.932;2023-02-26T11:37:51;8.50;90.80
53653;DHT22;39553;52.954;5.932;2023-02-26T11:40:34;8.40;90.80
53653;DHT22;39553;52.954;5.932;2023-02-26T11:43:05;8.30;91.20
53653;DHT22;39553;52.954;5.932;2023-02-26T11:45:34;8.40;91.50
53653;DHT22;39553;52.954;5.932;2023-02-26T11:48:08;8.70;91.40
53653;DHT22;39553;52.954;5.932;2023-02-26T11:50:41;8.50;90.70
53653;DHT22;39553;52.954;5.932;2023-02-26T11:53:18;8.70;90.80
53653;DHT22;39553;52.954;5.932;2023-02-26T11:55:46;8.90;89.60
53653;DHT22;39553;52.954;5.932;2023-02-26T11:58:23;8.80;90.00
53653;DHT22;39553;52.954;5.932;2023-02-26T12:00:53;9.00;88.50
53653;DHT22;39553;52.954;5.932;2023-02-26T12:03:25;8.90;88.80
53653;DHT22;39553;52.954;5.932;2023-02-26T12:05:53;9.00;89.70
53653;DHT22;39553;52.954;5.932;2023-02-26T12:08:32;8.80;89.10
53653;DHT22;39553;52.954;5.932;2023-02-26T12:11:11;8.60;88.80
53653;DHT22;39553;52.954;5.932;2023-02-26T12:13:51;8.20;89.00
53653;DHT22;39553;52.954;5.932;2023-02-26T12:22:40;8.20;90.30
53653;DHT22;39553;52.954;5.932;2023-02-26T12:30:32;10.20;85.60
53653;DHT22;39553;52.954;5.932;2023-02-26T12:33:51;10.50;87.90
53653;DHT22;39553;52.954;5.932;2023-02-26T12:47:39;8.90;87.60
53653;DHT22;39553;52.954;5.932;2023-02-26T12:50:21;8.10;87.10
53653;DHT22;39553;52.954;5.932;2023-02-26T12:53:15;8.00;89.00
53653;DHT22;39553;52.954;5.932;2023-02-26T13:01:13;8.40;89.70
53653;DHT22;39553;52.954;5.932;2023-02-26T13:09:35;9.50;86.70
53653;DHT22;39553;52.954;5.932;2023-02-26T13:20:54;7.80;90.20
53653;DHT22;39553;52.954;5.932;2023-02-26T13:23:35;7.80;91.00
53653;DHT22;39553;52.954;5.932;2023-02-26T13:26:07;7.80;91.30
53653;DHT22;39553;52.954;5.932;2023-02-26T13:33:49;7.40;91.80
53653;DHT22;39553;52.954;5.932;2023-02-26T13:36:16;7.20;92.60
53653;DHT22;39553;52.954;5.932;2023-02-26T13:39:05;7.60;92.60
53653;DHT22;39553;52.954;5.932;2023-02-26T13:52:32;9.50;89.40
53653;DHT22;39553;52.954;5.932;2023-02-26T13:55:01;9.50;90.00
53653;DHT22;39553;52.954;5.932;2023-02-26T14:05:51;8.30;87.70
53653;DHT22;39553;52.954;5.932;2023-02-26T14:11:32;8.70;88.70
53653;DHT22;39553;52.954;5.932;2023-02-26T14:16:42;9.10;87.80
53653;DHT22;39553;52.954;5.932;2023-02-26T14:24:22;9.10;89.30
53653;DHT22;39553;52.954;5.932;2023-02-26T14:27:06;8.60;89.60
53653;DHT22;39553;52.954;5.932;2023-02-26T14:32:45;7.40;90.20
53653;DHT22;39553;52.954;5.932;2023-02-26T14:35:16;7.50;90.70
53653;DHT22;39553;52.954;5.932;2023-02-26T14:37:48;7.10;91.20
53653;DHT22;39553;52.954;5.932;2023-02-26T14:40:20;7.30;92.00
53653;DHT22;39553;52.954;5.932;2023-02-26T14:43:15;7.20;92.40
53653;DHT22;39553;52.954;5.932;2023-02-26T14:45:43;7.00;92.60
53653;DHT22;39553;52.954;5.932;2023-02-26T14:48:18;6.80;91.90
53653;DHT22;39553;52.954;5.932;2023-02-26T14:51:14;6.60;92.30
53653;DHT22;39553;52.954;5.932;2023-02-26T14:58:03;6.50;93.00
53653;DHT22;39553;52.954;5.932;2023-02-26T15:00:35;6.50;93.00
53653;DHT22;39553;52.954;5.932;2023-02-26T15:06:45;6.30;93.00
53653;DHT22;39553;52.954;5.932;2023-02-26T15:09:39;6.20;93.90
53653;DHT22;39553;52.954;5.932;2023-02-26T15:18:00;6.20;93.40
53653;DHT22;39553;52.954;5.932;2023-02-26T15:20:49;6.30;92.80
53653;DHT22;39553;52.954;5.932;2023-02-26T15:23:37;6.20;92.20
53653;DHT22;39553;52.954;5.932;2023-02-26T15:26:05;6.10;92.70
53653;DHT22;39553;52.954;5.932;2023-02-26T15:28:34;5.80;93.10
53653;DHT22;39553;52.954;5.932;2023-02-26T15:31:05;5.60;93.40
53653;DHT22;39553;52.954;5.932;2023-02-26T15:33:32;5.40;93.60
53653;DHT22;39553;52.954;5.932;2023-02-26T15:35:59;5.40;94.10
53653;DHT22;39553;52.954;5.932;2023-02-26T15:38:26;5.90;94.50
53653;DHT22;39553;52.954;5.932;2023-02-26T15:40:56;5.60;94.40
53653;DHT22;39553;52.954;5.932;2023-02-26T15:43:26;5.90;94.20
53653;DHT22;39553;52.954;5.932;2023-02-26T15:45:55;6.20;94.20
53653;DHT22;39553;52.954;5.932;2023-02-26T15:48:28;6.50;94.00
53653;DHT22;39553;52.954;5.932;2023-02-26T15:51:00;6.70;92.80
53653;DHT22;39553;52.954;5.932;2023-02-26T15:53:33;7.00;92.50
53653;DHT22;39553;52.954;5.932;2023-02-26T15:56:03;7.00;92.00
53653;DHT22;39553;52.954;5.932;2023-02-26T15:58:37;6.80;92.00
53653;DHT22;39553;52.954;5.932;2023-02-26T16:01:05;6.60;92.50
53653;DHT22;39553;52.954;5.932;2023-02-26T16:03:35;7.10;92.30
53653;DHT22;39553;52.954;5.932;2023-02-26T16:06:02;7.60;92.00
53653;DHT22;39553;52.954;5.932;2023-02-26T16:08:28;7.80;91.40
53653;DHT22;39553;52.954;5.932;2023-02-26T16:10:56;8.00;91.10
53653;DHT22;39553;52.954;5.932;2023-02-26T16:13:30;7.90;90.80
53653;DHT22;39553;52.954;5.932;2023-02-26T16:16:05;8.10;91.20
53653;DHT22;39553;52.954;5.932;2023-02-26T16:18:35;8.00;91.20
53653;DHT22;39553;52.954;5.932;2023-02-26T16:21:02;7.90;91.50
53653;DHT22;39553;52.954;5.932;2023-02-26T16:23:44;7.80;91.40
53653;DHT22;39553;52.954;5.932;2023-02-26T16:26:21;7.60;91.30
53653;DHT22;39553;52.954;5.932;2023-02-26T16:28:50;7.50;91.80
53653;DHT22;39553;52.954;5.932;2023-02-26T16:31:20;7.40;92.30
53653;DHT22;39553;52.954;5.932;2023-02-26T16:34:00;6.90;92.40
53653;DHT22;39553;52.954;5.932;2023-02-26T16:36:39;6.30;93.10
53653;DHT22;39553;52.954;5.932;2023-02-26T16:41:34;5.40;94.90
53653;DHT22;39553;52.954;5.932;2023-02-26T16:44:03;5.30;95.40
53653;DHT22;39553;52.954;5.932;2023-02-26T16:46:39;4.80;95.90
53653;DHT22;39553;52.954;5.932;2023-02-26T16:49:35;4.90;96.40
53653;DHT22;39553;52.954;5.932;2023-02-26T16:52:03;4.50;97.30
53653;DHT22;39553;52.954;5.932;2023-02-26T16:54:33;4.40;97.80
53653;DHT22;39553;52.954;5.932;2023-02-26T16:57:05;4.40;98.00
53653;DHT22;39553;52.954;5.932;2023-02-26T16:59:35;4.10;98.30
53653;DHT22;39553;52.954;5.932;2023-02-26T17:02:18;4.10;98.60
53653;DHT22;39553;52.954;5.932;2023-02-26T17:04:50;4.00;99.00
53653;DHT22;39553;52.954;5.932;2023-02-26T17:07:32;3.90;99.80
53653;DHT22;39553;52.954;5.932;2023-02-26T17:10:16;3.80;99.90
53653;DHT22;39553;52.954;5.932;2023-02-26T17:12:47;4.00;99.90
53653;DHT22;39553;52.954;5.932;2023-02-26T17:15:37;3.90;99.90
53653;DHT22;39553;52.954;5.932;2023-02-26T17:18:04;3.60;99.90
53653;DHT22;39553;52.954;5.932;2023-02-26T17:20:30;3.40;99.90
53653;DHT22;39553;52.954;5.932;2023-02-26T17:22:58;3.40;99.90
53653;DHT22;39553;52.954;5.932;2023-02-26T17:25:26;3.30;99.90
53653;DHT22;39553;52.954;5.932;2023-02-26T17:27:54;3.30;99.90
53653;DHT22;39553;52.954;5.932;2023-02-26T17:30:22;3.20;99.90
53653;DHT22;39553;52.954;5.932;2023-02-26T17:32:48;3.30;99.90
53653;DHT22;39553;52.954;5.932;2023-02-26T17:35:16;3.40;99.90
53653;DHT22;39553;52.954;5.932;2023-02-26T17:37:42;3.10;99.90
53653;DHT22;39553;52.954;5.932;2023-02-26T17:40:22;3.00;99.90
53653;DHT22;39553;52.954;5.932;2023-02-26T17:42:49;2.90;99.90
53653;DHT22;39553;52.954;5.932;2023-02-26T17:45:15;2.90;99.90
53653;DHT22;39553;52.954;5.932;2023-02-26T17:47:41;2.80;99.90
53653;DHT22;39553;52.954;5.932;2023-02-26T17:52:43;2.80;99.90
53653;DHT22;39553;52.954;5.932;2023-02-26T17:55:09;3.00;99.90
53653;DHT22;39553;52.954;5.932;2023-02-26T17:57:34;2.70;99.90
53653;DHT22;39553;52.954;5.932;2023-02-26T18:00:00;3.30;99.90
53653;DHT22;39553;52.954;5.932;2023-02-26T18:02:26;2.60;99.90
53653;DHT22;39553;52.954;5.932;2023-02-26T18:04:52;2.50;99.90
53653;DHT22;39553;52.954;5.932;2023-02-26T18:07:19;2.50;99.90
53653;DHT22;39553;52.954;5.932;2023-02-26T18:09:46;2.50;99.90
53653;DHT22;39553;52.954;5.932;2023-02-26T18:12:18;2.40;99.90
53653;DHT22;39553;52.954;5.932;2023-02-26T18:14:44;2.40;99.90
53653;DHT22;39553;52.954;5.932;2023-02-26T18:17:17;2.40;99.90
53653;DHT22;39553;52.954;5.932;2023-02-26T18:19:45;2.40;99.90
53653;DHT22;39553;52.954;5.932;2023-02-26T18:22:15;3.10;99.90
53653;DHT22;39553;52.954;5.932;2023-02-26T18:24:42;2.30;99.90
53653;DHT22;39553;52.954;5.932;2023-02-26T18:27:13;2.20;99.90
53653;DHT22;39553;52.954;5.932;2023-02-26T18:29:39;2.20;99.90
53653;DHT22;39553;52.954;5.932;2023-02-26T18:32:05;1.90;99.90
53653;DHT22;39553;52.954;5.932;2023-02-26T18:34:31;2.10;99.90
53653;DHT22;39553;52.954;5.932;2023-02-26T18:36:56;2.00;99.90
53653;DHT22;39553;52.954;5.932;2023-02-26T18:39:22;2.00;99.90
53653;DHT22;39553;52.954;5.932;2023-02-26T18:41:52;1.90;99.90
53653;DHT22;39553;52.954;5.932;2023-02-26T18:44:18;2.70;99.90
53653;DHT22;39553;52.954;5.932;2023-02-26T18:46:43;2.00;99.90